createdAt,value
2023-02-03T00:00:42.452Z,72.95
2023-02-03T00:01:35.311Z,73.10
2023-02-03T00:02:08.401Z,73.02
2023-02-03T00:02:41.362Z,72.99
2023-02-03T00:03:14.457Z,72.99
2023-02-03T00:03:47.490Z,72.97
2023-02-03T00:05:36.958Z,72.90
2023-02-03T00:06:47.818Z,72.88
2023-02-03T00:07:58.595Z,72.85
2023-02-03T00:09:09.433Z,72.93
2023-02-03T00:12:16.935Z,72.90
2023-02-03T00:13:28.919Z,72.96
2023-02-03T00:14:01.996Z,72.97
2023-02-03T00:15:11.930Z,72.92
2023-02-03T00:15:45.427Z,72.95
2023-02-03T00:16:18.413Z,72.90
2023-02-03T00:16:51.490Z,72.92
2023-02-03T00:17:24.661Z,72.95
2023-02-03T00:18:35.467Z,73.09
2023-02-03T00:19:08.474Z,73.19
2023-02-03T00:20:57.431Z,73.27
2023-02-03T00:21:30.395Z,73.34
2023-02-03T00:23:58.864Z,73.35
2023-02-03T00:26:28.805Z,73.37
2023-02-03T00:27:01.872Z,73.40
2023-02-03T00:27:34.642Z,73.42
2023-02-03T00:28:07.671Z,73.38
2023-02-03T00:29:18.895Z,73.40
2023-02-03T00:29:51.959Z,73.41
2023-02-03T00:30:25.200Z,73.41
2023-02-03T00:30:58.315Z,73.38
2023-02-03T00:32:09.511Z,73.34
2023-02-03T00:33:58.030Z,73.57
2023-02-03T00:35:09.297Z,73.43
2023-02-03T00:37:08.717Z,73.32
2023-02-03T00:38:19.559Z,73.32
2023-02-03T00:38:53.063Z,73.24
2023-02-03T00:39:25.936Z,73.16
2023-02-03T00:39:58.878Z,73.27
2023-02-03T00:41:09.853Z,73.14
2023-02-03T00:42:20.731Z,73.07
2023-02-03T00:42:55.117Z,73.13
2023-02-03T00:43:28.511Z,73.06
2023-02-03T00:44:39.179Z,73.06
2023-02-03T00:45:49.970Z,73.01
2023-02-03T00:46:23.000Z,73.07
2023-02-03T00:46:55.972Z,73.08
2023-02-03T00:47:29.039Z,73.12
2023-02-03T00:49:17.788Z,73.21
2023-02-03T00:50:28.881Z,73.14
2023-02-03T00:51:39.627Z,73.08
2023-02-03T00:53:28.473Z,73.06
2023-02-03T00:54:39.083Z,72.97
2023-02-03T00:55:49.784Z,73.06
2023-02-03T00:56:22.753Z,73.10
2023-02-03T00:56:55.636Z,73.23
2023-02-03T00:57:28.901Z,73.14
2023-02-03T00:59:18.571Z,73.02
2023-02-03T01:00:29.539Z,72.93
2023-02-03T01:01:40.302Z,72.92
2023-02-03T01:02:47.075Z,72.71
2023-02-03T01:04:35.671Z,72.70
2023-02-03T01:05:08.780Z,72.66
2023-02-03T01:06:20.511Z,72.57
2023-02-03T01:06:57.664Z,72.53
2023-02-03T01:07:33.046Z,72.50
2023-02-03T01:08:06.008Z,72.47
2023-02-03T01:08:39.009Z,72.50
2023-02-03T01:09:11.853Z,72.48
2023-02-03T01:09:44.743Z,72.42
2023-02-03T01:10:18.137Z,72.43
2023-02-03T01:11:29.199Z,72.39
2023-02-03T01:13:18.256Z,72.43
2023-02-03T01:13:51.946Z,72.43
2023-02-03T01:14:24.784Z,72.47
2023-02-03T01:15:35.880Z,72.42
2023-02-03T01:16:50.680Z,72.43
2023-02-03T01:18:39.832Z,72.42
2023-02-03T01:21:08.483Z,72.54
2023-02-03T01:21:41.453Z,72.45
2023-02-03T01:22:14.480Z,72.52
2023-02-03T01:22:48.574Z,72.56
2023-02-03T01:23:21.512Z,72.63
2023-02-03T01:23:54.634Z,72.49
2023-02-03T01:24:29.898Z,72.62
2023-02-03T01:25:40.452Z,72.69
2023-02-03T01:26:15.629Z,72.68
2023-02-03T01:26:48.654Z,72.81
2023-02-03T01:28:37.812Z,72.81
2023-02-03T01:29:10.783Z,72.88
2023-02-03T01:31:12.209Z,72.84
2023-02-03T01:31:45.380Z,72.90
2023-02-03T01:32:18.590Z,72.93
2023-02-03T01:32:51.868Z,73.03
2023-02-03T01:33:25.175Z,73.14
2023-02-03T01:33:58.955Z,73.06
2023-02-03T01:37:37.667Z,73.30
2023-02-03T01:38:45.352Z,73.24
2023-02-03T01:39:18.651Z,73.10
2023-02-03T01:40:24.790Z,73.07
2023-02-03T01:40:58.173Z,73.03
2023-02-03T01:42:15.270Z,73.06
2023-02-03T01:43:30.953Z,73.00
2023-02-03T01:44:32.797Z,72.96
2023-02-03T01:45:06.601Z,72.90
2023-02-03T01:45:39.585Z,72.89
2023-02-03T01:47:45.157Z,72.87
2023-02-03T01:48:18.188Z,72.86
2023-02-03T01:50:14.605Z,72.82
2023-02-03T01:53:20.568Z,72.73
2023-02-03T01:54:37.770Z,72.58
2023-02-03T01:57:16.640Z,72.82
2023-02-03T01:57:54.563Z,72.73
2023-02-03T01:59:08.013Z,72.77
2023-02-03T01:59:40.962Z,72.74
2023-02-03T02:00:15.086Z,72.77
2023-02-03T02:00:48.817Z,72.85
2023-02-03T02:01:22.044Z,72.74
2023-02-03T02:01:55.132Z,72.81
2023-02-03T02:03:06.302Z,72.76
2023-02-03T02:04:43.789Z,72.80
2023-02-03T02:05:40.312Z,72.85
2023-02-03T02:06:52.197Z,72.94
2023-02-03T02:07:25.786Z,72.89
2023-02-03T02:08:37.360Z,72.97
2023-02-03T02:09:10.336Z,72.87
2023-02-03T02:09:44.326Z,72.88
2023-02-03T02:10:17.415Z,72.85
2023-02-03T02:11:28.528Z,72.74
2023-02-03T02:12:39.372Z,72.70
2023-02-03T02:13:51.422Z,72.61
2023-02-03T02:14:24.404Z,72.58
2023-02-03T02:14:57.369Z,72.54
2023-02-03T02:15:59.261Z,72.51
2023-02-03T02:16:47.756Z,72.54
2023-02-03T02:17:37.440Z,72.55
2023-02-03T02:18:20.428Z,72.62
2023-02-03T02:18:57.498Z,72.50
2023-02-03T02:22:04.277Z,72.60
2023-02-03T02:23:05.203Z,72.51
2023-02-03T02:23:57.635Z,72.57
2023-02-03T02:25:12.077Z,72.50
2023-02-03T02:27:08.203Z,72.58
2023-02-03T02:28:03.346Z,72.56
2023-02-03T02:28:46.195Z,72.51
2023-02-03T02:29:44.258Z,72.57
2023-02-03T02:30:20.302Z,72.50
2023-02-03T02:31:15.619Z,72.54
2023-02-03T02:33:20.117Z,72.52
2023-02-03T02:34:03.653Z,72.57
2023-02-03T02:35:49.291Z,72.60
2023-02-03T02:37:29.257Z,72.56
2023-02-03T02:38:25.520Z,72.54
2023-02-03T02:39:00.114Z,72.60
2023-02-03T02:39:44.836Z,72.57
2023-02-03T02:41:12.362Z,72.51
2023-02-03T02:41:49.137Z,72.53
2023-02-03T02:42:34.824Z,72.53
2023-02-03T02:44:00.025Z,72.52
2023-02-03T02:44:35.108Z,72.54
2023-02-03T02:45:15.394Z,72.61
2023-02-03T02:45:53.017Z,72.54
2023-02-03T02:47:27.692Z,72.52
2023-02-03T02:48:08.239Z,72.53
2023-02-03T02:48:57.178Z,72.51
2023-02-03T02:51:40.924Z,72.46
2023-02-03T02:52:14.613Z,72.40
2023-02-03T02:52:47.505Z,72.40
2023-02-03T02:54:07.308Z,72.44
2023-02-03T02:56:56.641Z,72.29
2023-02-03T02:57:31.525Z,72.41
2023-02-03T02:58:07.279Z,72.34
2023-02-03T02:58:41.389Z,72.33
2023-02-03T02:59:14.351Z,72.30
2023-02-03T02:59:47.733Z,72.22
2023-02-03T03:00:20.911Z,72.25
2023-02-03T03:02:11.197Z,72.29
2023-02-03T03:05:19.719Z,72.21
2023-02-03T03:05:55.662Z,72.16
2023-02-03T03:07:45.827Z,72.13
2023-02-03T03:08:20.560Z,72.15
2023-02-03T03:08:57.829Z,72.15
2023-02-03T03:11:02.246Z,72.15
2023-02-03T03:12:22.329Z,72.08
2023-02-03T03:12:57.664Z,72.17
2023-02-03T03:14:10.968Z,72.17
2023-02-03T03:14:46.298Z,72.17
2023-02-03T03:15:25.398Z,72.18
2023-02-03T03:15:58.668Z,72.24
2023-02-03T03:20:37.733Z,72.14
2023-02-03T03:22:37.440Z,72.11
2023-02-03T03:23:14.716Z,72.15
2023-02-03T03:25:13.423Z,72.10
2023-02-03T03:25:48.955Z,72.09
2023-02-03T03:26:24.884Z,72.02
2023-02-03T03:27:54.569Z,72.11
2023-02-03T03:28:42.703Z,72.12
2023-02-03T03:29:18.651Z,72.09
2023-02-03T03:32:17.743Z,72.13
2023-02-03T03:33:28.732Z,72.04
2023-02-03T03:34:39.489Z,72.11
2023-02-03T03:35:12.746Z,72.09
2023-02-03T03:35:55.966Z,72.05
2023-02-03T03:36:34.665Z,71.95
2023-02-03T03:38:07.649Z,72.01
2023-02-03T03:39:24.766Z,71.98
2023-02-03T03:41:25.025Z,72.00
2023-02-03T03:41:59.390Z,72.02
2023-02-03T03:42:33.578Z,72.05
2023-02-03T03:44:04.372Z,72.04
2023-02-03T03:45:43.488Z,72.04
2023-02-03T03:46:27.320Z,71.99
2023-02-03T03:47:07.295Z,71.94
2023-02-03T03:47:42.549Z,72.04
2023-02-03T03:51:08.550Z,72.08
2023-02-03T03:51:45.224Z,71.99
2023-02-03T03:52:24.443Z,72.03
2023-02-03T03:52:57.762Z,72.02
2023-02-03T03:53:31.298Z,71.96
2023-02-03T03:54:06.973Z,71.94
2023-02-03T03:55:18.515Z,71.91
2023-02-03T03:58:46.655Z,71.81
2023-02-03T03:59:58.885Z,71.77
2023-02-03T04:02:27.377Z,71.70
2023-02-03T04:03:44.321Z,71.66
2023-02-03T04:04:17.357Z,71.69
2023-02-03T04:05:28.407Z,71.67
2023-02-03T04:06:39.266Z,71.64
2023-02-03T04:07:15.414Z,71.69
2023-02-03T04:08:26.278Z,71.59
2023-02-03T04:09:37.649Z,71.55
2023-02-03T04:10:31.991Z,71.60
2023-02-03T04:11:05.414Z,71.62
2023-02-03T04:11:56.914Z,71.62
2023-02-03T04:13:08.593Z,71.68
2023-02-03T04:13:41.568Z,71.63
2023-02-03T04:14:14.547Z,71.62
2023-02-03T04:14:47.515Z,71.54
2023-02-03T04:15:58.529Z,71.73
2023-02-03T04:16:31.575Z,71.58
2023-02-03T04:17:04.728Z,71.60
2023-02-03T04:18:15.737Z,71.56
2023-02-03T04:19:26.672Z,71.51
2023-02-03T04:20:37.489Z,71.48
2023-02-03T04:21:10.599Z,71.49
2023-02-03T04:24:17.099Z,71.57
2023-02-03T04:25:28.036Z,71.54
2023-02-03T04:26:01.409Z,71.55
2023-02-03T04:26:34.453Z,71.56
2023-02-03T04:27:07.563Z,71.48
2023-02-03T04:28:18.408Z,71.50
2023-02-03T04:29:29.207Z,71.51
2023-02-03T04:31:17.974Z,71.48
2023-02-03T04:32:29.328Z,71.57
2023-02-03T04:33:40.586Z,71.53
2023-02-03T04:34:51.754Z,71.52
2023-02-03T04:35:25.020Z,71.56
2023-02-03T04:35:58.097Z,71.55
2023-02-03T04:37:12.427Z,71.55
2023-02-03T04:37:45.823Z,71.59
2023-02-03T04:38:56.990Z,71.55
2023-02-03T04:39:30.064Z,71.58
2023-02-03T04:41:57.332Z,71.59
2023-02-03T04:43:46.477Z,71.51
2023-02-03T04:44:57.339Z,71.61
2023-02-03T04:46:08.538Z,71.53
2023-02-03T04:47:19.562Z,71.37
2023-02-03T04:47:54.492Z,71.48
2023-02-03T04:48:28.000Z,71.47
2023-02-03T04:49:39.040Z,71.46
2023-02-03T04:50:49.798Z,71.44
2023-02-03T04:52:00.712Z,71.49
2023-02-03T04:53:49.624Z,71.49
2023-02-03T04:54:22.603Z,71.53
2023-02-03T04:54:55.666Z,71.48
2023-02-03T04:55:28.856Z,71.55
2023-02-03T04:56:01.917Z,71.56
2023-02-03T04:56:34.888Z,71.54
2023-02-03T04:57:07.867Z,71.58
2023-02-03T04:58:18.732Z,71.54
2023-02-03T04:59:29.586Z,71.55
2023-02-03T05:01:18.468Z,71.52
2023-02-03T05:01:51.394Z,71.39
2023-02-03T05:02:24.694Z,71.55
2023-02-03T05:02:57.787Z,71.52
2023-02-03T05:03:30.909Z,71.50
2023-02-03T05:04:43.239Z,71.38
2023-02-03T05:05:16.250Z,71.46
2023-02-03T05:08:26.684Z,71.38
2023-02-03T05:09:37.491Z,71.31
2023-02-03T05:10:48.608Z,71.36
2023-02-03T05:11:22.317Z,71.26
2023-02-03T05:11:55.219Z,71.27
2023-02-03T05:13:06.161Z,71.26
2023-02-03T05:14:16.887Z,71.22
2023-02-03T05:15:27.757Z,71.17
2023-02-03T05:16:00.823Z,71.13
2023-02-03T05:17:52.284Z,71.10
2023-02-03T05:18:25.205Z,71.05
2023-02-03T05:18:58.184Z,71.03
2023-02-03T05:20:09.940Z,71.14
2023-02-03T05:21:20.704Z,71.02
2023-02-03T05:22:26.473Z,70.98
2023-02-03T05:22:59.556Z,71.03
2023-02-03T05:24:10.810Z,70.99
2023-02-03T05:25:21.728Z,70.98
2023-02-03T05:25:54.857Z,71.01
2023-02-03T05:26:27.673Z,71.03
2023-02-03T05:27:38.841Z,71.06
2023-02-03T05:28:11.937Z,71.15
2023-02-03T05:28:45.445Z,71.04
2023-02-03T05:29:56.249Z,71.09
2023-02-03T05:31:07.268Z,71.18
2023-02-03T05:32:18.281Z,71.07
2023-02-03T05:33:29.516Z,71.11
2023-02-03T05:34:02.473Z,71.17
2023-02-03T05:34:35.548Z,71.12
2023-02-03T05:35:08.728Z,71.11
2023-02-03T05:35:41.706Z,71.14
2023-02-03T05:36:14.690Z,71.18
2023-02-03T05:37:25.582Z,71.18
2023-02-03T05:38:37.424Z,71.25
2023-02-03T05:39:48.229Z,71.16
2023-02-03T05:40:40.197Z,71.29
2023-02-03T05:42:48.919Z,71.29
2023-02-03T05:43:21.888Z,71.32
2023-02-03T05:43:54.757Z,71.25
2023-02-03T05:45:47.149Z,71.25
2023-02-03T05:47:37.273Z,71.22
2023-02-03T05:49:26.336Z,71.22
2023-02-03T05:50:38.714Z,71.21
2023-02-03T05:51:50.819Z,71.19
2023-02-03T05:53:04.853Z,71.26
2023-02-03T05:53:37.933Z,71.31
2023-02-03T05:54:11.004Z,71.29
2023-02-03T05:55:21.765Z,71.24
2023-02-03T05:55:54.875Z,71.25
2023-02-03T05:57:06.007Z,71.29
2023-02-03T05:57:39.286Z,71.27
2023-02-03T05:59:26.870Z,71.33
2023-02-03T05:59:59.880Z,71.23
2023-02-03T06:01:05.630Z,71.19
2023-02-03T06:01:38.696Z,71.23
2023-02-03T06:02:11.671Z,71.19
2023-02-03T06:02:44.645Z,71.14
2023-02-03T06:03:17.630Z,71.17
2023-02-03T06:05:08.522Z,71.14
2023-02-03T06:05:41.694Z,71.13
2023-02-03T06:06:15.078Z,71.13
2023-02-03T06:06:48.463Z,71.18
2023-02-03T06:08:37.313Z,71.10
2023-02-03T06:09:48.170Z,71.12
2023-02-03T06:12:20.645Z,71.05
2023-02-03T06:14:05.102Z,71.09
2023-02-03T06:14:38.088Z,71.04
2023-02-03T06:15:49.144Z,70.94
2023-02-03T06:16:25.132Z,71.03
2023-02-03T06:17:36.449Z,70.96
2023-02-03T06:18:09.522Z,70.93
2023-02-03T06:19:20.793Z,70.90
2023-02-03T06:20:31.655Z,70.85
2023-02-03T06:21:05.095Z,70.94
2023-02-03T06:21:37.982Z,70.74
2023-02-03T06:22:48.875Z,70.90
2023-02-03T06:24:37.827Z,70.89
2023-02-03T06:25:49.198Z,70.88
2023-02-03T06:28:16.527Z,71.04
2023-02-03T06:28:49.631Z,71.00
2023-02-03T06:30:38.520Z,71.06
2023-02-03T06:31:12.031Z,71.06
2023-02-03T06:31:45.164Z,71.04
2023-02-03T06:32:18.220Z,71.05
2023-02-03T06:33:29.079Z,71.01
2023-02-03T06:36:35.856Z,71.09
2023-02-03T06:37:09.042Z,71.02
2023-02-03T06:37:42.252Z,70.94
2023-02-03T06:38:15.185Z,70.91
2023-02-03T06:39:26.045Z,70.92
2023-02-03T06:40:36.823Z,70.77
2023-02-03T06:41:47.576Z,70.90
2023-02-03T06:42:58.442Z,70.95
2023-02-03T06:44:46.973Z,70.95
2023-02-03T06:45:57.890Z,70.94
2023-02-03T06:47:08.803Z,70.94
2023-02-03T06:48:20.379Z,71.00
2023-02-03T06:49:31.129Z,70.96
2023-02-03T06:51:57.464Z,70.94
2023-02-03T06:53:08.228Z,70.93
2023-02-03T06:53:41.201Z,70.90
2023-02-03T06:54:14.478Z,70.84
2023-02-03T06:54:47.547Z,70.80
2023-02-03T06:55:20.534Z,70.86
2023-02-03T06:56:31.384Z,70.90
2023-02-03T06:57:04.418Z,70.98
2023-02-03T06:57:43.407Z,70.99
2023-02-03T06:58:16.354Z,70.87
2023-02-03T06:59:27.100Z,70.95
2023-02-03T07:00:00.132Z,70.99
2023-02-03T07:01:11.162Z,70.99
2023-02-03T07:01:44.472Z,70.97
2023-02-03T07:02:17.485Z,71.01
2023-02-03T07:02:54.808Z,71.03
2023-02-03T07:03:27.947Z,70.90
2023-02-03T07:04:00.876Z,70.91
2023-02-03T07:05:11.780Z,70.91
2023-02-03T07:05:44.655Z,70.90
2023-02-03T07:06:56.535Z,70.90
2023-02-03T07:07:31.918Z,70.89
2023-02-03T07:08:05.040Z,70.86
2023-02-03T07:08:38.026Z,70.89
2023-02-03T07:10:26.933Z,70.87
2023-02-03T07:11:37.933Z,70.91
2023-02-03T07:12:50.898Z,70.70
2023-02-03T07:13:24.021Z,70.74
2023-02-03T07:13:56.957Z,70.72
2023-02-03T07:15:09.768Z,70.68
2023-02-03T07:16:20.604Z,70.66
2023-02-03T07:16:54.571Z,70.67
2023-02-03T07:17:27.510Z,70.66
2023-02-03T07:18:47.652Z,70.59
2023-02-03T07:20:37.077Z,70.54
2023-02-03T07:22:25.621Z,70.50
2023-02-03T07:22:58.693Z,70.51
2023-02-03T07:24:47.238Z,70.37
2023-02-03T07:27:20.015Z,70.39
2023-02-03T07:28:31.901Z,70.40
2023-02-03T07:29:04.873Z,70.36
2023-02-03T07:30:15.738Z,70.39
2023-02-03T07:30:49.346Z,70.35
2023-02-03T07:32:02.896Z,70.34
2023-02-03T07:32:36.034Z,70.34
2023-02-03T07:33:46.780Z,70.22
2023-02-03T07:34:19.648Z,70.25
2023-02-03T07:36:46.596Z,70.26
2023-02-03T07:38:35.455Z,70.19
2023-02-03T07:39:08.648Z,70.32
2023-02-03T07:40:20.723Z,70.41
2023-02-03T07:43:26.267Z,70.44
2023-02-03T07:43:59.137Z,70.49
2023-02-03T07:45:11.164Z,70.48
2023-02-03T07:45:44.172Z,70.35
2023-02-03T07:46:17.320Z,70.37
2023-02-03T07:47:27.971Z,70.34
2023-02-03T07:48:38.897Z,70.39
2023-02-03T07:49:50.491Z,70.44
2023-02-03T07:52:17.125Z,70.55
2023-02-03T07:52:51.312Z,70.57
2023-02-03T07:54:02.275Z,70.56
2023-02-03T07:54:35.350Z,70.47
2023-02-03T07:55:08.690Z,70.52
2023-02-03T07:56:19.492Z,70.41
2023-02-03T07:58:08.350Z,70.27
2023-02-03T07:59:19.100Z,70.00
2023-02-03T08:00:30.127Z,69.96
2023-02-03T08:01:12.975Z,69.98
2023-02-03T08:01:45.952Z,70.00
2023-02-03T08:02:19.021Z,69.94
2023-02-03T08:03:30.189Z,69.98
2023-02-03T08:04:05.528Z,70.05
2023-02-03T08:04:38.615Z,70.07
2023-02-03T08:05:12.165Z,70.01
2023-02-03T08:05:45.252Z,70.12
2023-02-03T08:06:54.892Z,70.06
2023-02-03T08:07:27.962Z,70.10
2023-02-03T08:08:38.840Z,70.04
2023-02-03T08:09:49.682Z,70.01
2023-02-03T08:11:00.414Z,69.76
2023-02-03T08:12:11.411Z,69.87
2023-02-03T08:12:45.360Z,69.84
2023-02-03T08:13:18.687Z,69.91
2023-02-03T08:14:31.392Z,69.98
2023-02-03T08:15:05.774Z,70.02
2023-02-03T08:15:38.767Z,70.07
2023-02-03T08:16:49.481Z,70.06
2023-02-03T08:18:00.512Z,69.91
2023-02-03T08:20:28.268Z,69.99
2023-02-03T08:21:41.467Z,70.05
2023-02-03T08:22:16.848Z,70.10
2023-02-03T08:22:49.895Z,70.15
2023-02-03T08:23:22.950Z,70.19
2023-02-03T08:23:55.918Z,70.23
2023-02-03T08:25:07.631Z,70.10
2023-02-03T08:26:18.394Z,70.00
2023-02-03T08:27:31.797Z,69.93
2023-02-03T08:28:06.636Z,69.89
2023-02-03T08:29:17.558Z,69.85
2023-02-03T08:30:28.838Z,69.81
2023-02-03T08:31:42.257Z,69.82
2023-02-03T08:33:46.052Z,69.99
2023-02-03T08:34:18.913Z,70.02
2023-02-03T08:36:45.769Z,70.01
2023-02-03T08:37:57.957Z,70.00
2023-02-03T08:38:31.036Z,70.01
2023-02-03T08:40:19.785Z,69.71
2023-02-03T08:42:46.056Z,69.56
2023-02-03T08:43:56.882Z,69.56
2023-02-03T08:44:31.525Z,69.62
2023-02-03T08:45:05.249Z,69.53
2023-02-03T08:45:40.692Z,69.37
2023-02-03T08:48:46.058Z,69.63
2023-02-03T08:49:19.534Z,69.55
2023-02-03T08:51:36.341Z,69.57
2023-02-03T08:52:49.076Z,69.58
2023-02-03T08:54:38.211Z,69.64
2023-02-03T08:55:50.220Z,69.62
2023-02-03T08:56:24.497Z,69.91
2023-02-03T08:56:57.369Z,69.93
2023-02-03T08:57:34.724Z,69.85
2023-02-03T08:58:07.732Z,69.86
2023-02-03T08:58:40.795Z,69.97
2023-02-03T08:59:14.328Z,69.89
2023-02-03T08:59:47.346Z,70.00
2023-02-03T09:01:07.424Z,70.00
2023-02-03T09:01:46.134Z,70.09
2023-02-03T09:02:19.629Z,70.00
2023-02-03T09:02:52.702Z,69.88
2023-02-03T09:03:25.770Z,69.89
2023-02-03T09:03:58.733Z,69.93
2023-02-03T09:05:49.163Z,69.84
2023-02-03T09:08:16.379Z,69.81
2023-02-03T09:09:27.144Z,69.78
2023-02-03T09:10:37.906Z,69.49
2023-02-03T09:11:11.385Z,69.51
2023-02-03T09:12:59.752Z,69.40
2023-02-03T09:14:11.409Z,69.28
2023-02-03T09:14:44.486Z,69.52
2023-02-03T09:15:17.556Z,69.49
2023-02-03T09:15:50.502Z,69.47
2023-02-03T09:18:19.228Z,69.49
2023-02-03T09:18:52.291Z,69.55
2023-02-03T09:19:25.368Z,69.56
2023-02-03T09:20:36.234Z,69.55
2023-02-03T09:22:27.433Z,69.20
2023-02-03T09:23:38.706Z,69.14
2023-02-03T09:26:08.465Z,69.24
2023-02-03T09:27:19.279Z,69.27
2023-02-03T09:27:52.284Z,69.26
2023-02-03T09:28:25.324Z,69.20
2023-02-03T09:28:58.356Z,69.09
2023-02-03T09:30:09.525Z,68.76
2023-02-03T09:30:42.598Z,68.63
2023-02-03T09:31:55.830Z,68.80
2023-02-03T09:32:28.933Z,68.76
2023-02-03T09:33:39.981Z,68.79
2023-02-03T09:34:13.108Z,68.81
2023-02-03T09:34:46.064Z,68.81
2023-02-03T09:35:19.741Z,68.78
2023-02-03T09:35:53.940Z,68.76
2023-02-03T09:36:26.874Z,68.71
2023-02-03T09:36:59.884Z,68.60
2023-02-03T09:38:48.455Z,68.43
2023-02-03T09:39:59.699Z,68.34
2023-02-03T09:40:34.540Z,68.28
2023-02-03T09:42:36.170Z,68.08
2023-02-03T09:45:26.459Z,68.43
2023-02-03T09:46:08.529Z,68.54
2023-02-03T09:46:49.370Z,68.54
2023-02-03T09:47:24.892Z,68.57
2023-02-03T09:48:03.318Z,68.53
2023-02-03T09:48:38.994Z,68.61
2023-02-03T09:49:58.359Z,68.61
2023-02-03T09:51:17.820Z,68.42
2023-02-03T09:52:03.055Z,68.35
2023-02-03T09:52:39.512Z,68.31
2023-02-03T09:55:06.676Z,68.37
2023-02-03T09:57:22.041Z,68.63
2023-02-03T09:58:07.003Z,68.64
2023-02-03T09:58:39.857Z,68.65
2023-02-03T09:59:12.749Z,68.62
2023-02-03T09:59:45.607Z,68.56
2023-02-03T10:00:22.678Z,68.41
2023-02-03T10:02:27.867Z,68.42
2023-02-03T10:03:06.522Z,68.28
2023-02-03T10:03:54.636Z,68.18
2023-02-03T10:07:30.503Z,68.15
2023-02-03T10:09:22.426Z,67.87
2023-02-03T10:10:10.547Z,67.95
2023-02-03T10:10:46.694Z,67.94
2023-02-03T10:11:22.536Z,67.95
2023-02-03T10:12:13.633Z,67.89
2023-02-03T10:13:01.360Z,67.92
2023-02-03T10:14:14.261Z,67.94
2023-02-03T10:15:00.952Z,67.81
2023-02-03T10:15:57.724Z,67.86
2023-02-03T10:17:09.258Z,67.88
2023-02-03T10:17:44.492Z,67.88
2023-02-03T10:18:58.839Z,67.92
2023-02-03T10:20:58.443Z,68.00
2023-02-03T10:21:38.883Z,68.12
2023-02-03T10:22:15.696Z,68.19
2023-02-03T10:24:26.629Z,68.10
2023-02-03T10:25:03.809Z,68.19
2023-02-03T10:25:57.151Z,68.27
2023-02-03T10:27:17.116Z,68.29
2023-02-03T10:27:50.242Z,67.95
2023-02-03T10:28:24.507Z,67.85
2023-02-03T10:28:59.067Z,67.91
2023-02-03T10:29:38.837Z,68.05
2023-02-03T10:30:19.909Z,68.05
2023-02-03T10:31:00.163Z,68.15
2023-02-03T10:31:34.978Z,68.16
2023-02-03T10:32:14.429Z,68.17
2023-02-03T10:32:50.328Z,68.02
2023-02-03T10:33:26.162Z,67.99
2023-02-03T10:34:12.349Z,67.82
2023-02-03T10:34:45.768Z,67.67
2023-02-03T10:36:25.774Z,67.70
2023-02-03T10:37:45.664Z,67.81
2023-02-03T10:38:41.972Z,67.80
2023-02-03T10:39:36.851Z,67.91
2023-02-03T10:40:12.897Z,68.04
2023-02-03T10:40:46.040Z,68.02
2023-02-03T10:41:19.872Z,67.85
2023-02-03T10:41:53.658Z,67.74
2023-02-03T10:42:46.705Z,67.77
2023-02-03T10:43:38.443Z,67.88
2023-02-03T10:44:12.877Z,67.85
2023-02-03T10:45:06.788Z,67.83
2023-02-03T10:47:25.342Z,67.96
2023-02-03T10:47:58.430Z,67.95
2023-02-03T10:49:12.082Z,68.12
2023-02-03T10:49:45.144Z,68.02
2023-02-03T10:50:21.231Z,67.97
2023-02-03T10:50:54.338Z,68.06
2023-02-03T10:53:34.882Z,68.00
2023-02-03T10:54:35.645Z,67.86
2023-02-03T10:56:15.913Z,67.83
2023-02-03T10:58:07.876Z,67.91
2023-02-03T10:58:47.565Z,67.86
2023-02-03T10:59:31.350Z,67.81
2023-02-03T11:00:31.382Z,67.78
2023-02-03T11:01:10.000Z,67.91
2023-02-03T11:01:45.200Z,67.88
2023-02-03T11:02:25.960Z,67.89
2023-02-03T11:03:17.019Z,67.66
2023-02-03T11:03:58.460Z,67.39
2023-02-03T11:05:12.310Z,67.37
2023-02-03T11:05:45.193Z,67.42
2023-02-03T11:07:35.396Z,67.13
2023-02-03T11:08:55.214Z,67.09
2023-02-03T11:10:31.275Z,67.20
2023-02-03T11:11:06.808Z,67.12
2023-02-03T11:15:24.813Z,67.24
2023-02-03T11:16:00.825Z,67.21
2023-02-03T11:16:34.599Z,67.24
2023-02-03T11:17:08.316Z,67.27
2023-02-03T11:18:47.703Z,67.01
2023-02-03T11:21:38.977Z,67.14
2023-02-03T11:23:27.722Z,67.36
2023-02-03T11:24:45.445Z,67.31
2023-02-03T11:25:27.723Z,67.21
2023-02-03T11:26:09.311Z,67.21
2023-02-03T11:27:00.324Z,67.20
2023-02-03T11:28:46.086Z,67.43
2023-02-03T11:29:24.036Z,67.40
2023-02-03T11:30:16.732Z,67.18
2023-02-03T11:30:55.945Z,67.40
2023-02-03T11:31:30.857Z,67.45
2023-02-03T11:32:07.100Z,67.50
2023-02-03T11:34:05.065Z,67.50
2023-02-03T11:35:22.253Z,67.31
2023-02-03T11:35:59.074Z,67.31
2023-02-03T11:36:34.013Z,67.26
2023-02-03T11:37:34.576Z,67.27
2023-02-03T11:38:10.005Z,67.15
2023-02-03T11:38:44.942Z,67.31
2023-02-03T11:41:29.638Z,67.64
2023-02-03T11:42:45.603Z,67.78
2023-02-03T11:46:01.195Z,68.02
2023-02-03T11:46:37.778Z,67.96
2023-02-03T11:47:53.858Z,67.94
2023-02-03T11:48:28.734Z,68.04
2023-02-03T11:49:57.084Z,68.08
2023-02-03T11:50:30.986Z,68.00
2023-02-03T11:51:21.764Z,67.97
2023-02-03T11:52:13.784Z,67.95
2023-02-03T11:52:58.557Z,67.97
2023-02-03T11:53:51.324Z,68.04
2023-02-03T11:54:35.508Z,68.06
2023-02-03T11:55:16.790Z,68.10
2023-02-03T11:56:01.963Z,68.05
2023-02-03T11:56:40.139Z,68.05
2023-02-03T11:57:44.956Z,68.13
2023-02-03T11:58:41.884Z,67.82
2023-02-03T11:59:41.179Z,67.87
2023-02-03T12:00:38.519Z,68.02
2023-02-03T12:01:45.939Z,68.10
2023-02-03T12:03:40.233Z,68.35
2023-02-03T12:05:56.063Z,68.44
2023-02-03T12:07:40.417Z,68.32
2023-02-03T12:08:49.629Z,68.27
2023-02-03T12:09:34.992Z,68.38
2023-02-03T12:10:08.175Z,68.47
2023-02-03T12:11:17.803Z,68.48
2023-02-03T12:12:02.758Z,68.45
2023-02-03T12:12:44.855Z,68.46
2023-02-03T12:13:36.873Z,68.48
2023-02-03T12:14:18.238Z,68.38
2023-02-03T12:15:23.161Z,68.57
2023-02-03T12:16:11.307Z,68.49
2023-02-03T12:17:23.746Z,68.24
2023-02-03T12:18:28.193Z,68.28
2023-02-03T12:19:17.964Z,68.45
2023-02-03T12:20:00.554Z,68.48
2023-02-03T12:21:01.179Z,68.45
2023-02-03T12:21:41.460Z,68.53
2023-02-03T12:22:33.922Z,68.52
2023-02-03T12:23:42.560Z,68.45
2023-02-03T12:24:26.688Z,68.53
2023-02-03T12:25:10.296Z,68.39
2023-02-03T12:25:56.407Z,68.38
2023-02-03T12:26:38.389Z,68.37
2023-02-03T12:27:37.489Z,68.40
2023-02-03T12:28:35.643Z,68.43
2023-02-03T12:30:04.793Z,68.47
2023-02-03T12:30:50.227Z,68.53
2023-02-03T12:33:12.445Z,68.14
2023-02-03T12:33:54.768Z,68.12
2023-02-03T12:34:33.523Z,68.18
2023-02-03T12:35:40.048Z,68.19
2023-02-03T12:36:23.395Z,68.13
2023-02-03T12:36:59.455Z,68.18
2023-02-03T12:38:01.726Z,68.13
2023-02-03T12:39:00.322Z,68.05
2023-02-03T12:39:33.354Z,68.10
2023-02-03T12:41:15.032Z,68.10
2023-02-03T12:42:04.297Z,68.09
2023-02-03T12:43:24.805Z,67.95
2023-02-03T12:44:02.566Z,67.78
2023-02-03T12:44:51.923Z,67.77
2023-02-03T12:45:29.988Z,67.83
2023-02-03T12:46:25.141Z,67.85
2023-02-03T12:47:03.851Z,67.86
2023-02-03T12:47:57.396Z,67.90
2023-02-03T12:48:56.968Z,67.83
2023-02-03T12:49:39.004Z,67.78
2023-02-03T12:50:36.715Z,67.80
2023-02-03T12:51:12.569Z,67.92
2023-02-03T12:51:47.118Z,67.94
2023-02-03T12:52:26.912Z,67.81
2023-02-03T12:53:52.387Z,68.02
2023-02-03T12:54:52.912Z,67.75
2023-02-03T12:55:36.008Z,68.03
2023-02-03T12:56:13.575Z,68.06
2023-02-03T12:56:46.514Z,68.00
2023-02-03T12:57:38.523Z,67.93
2023-02-03T12:58:15.748Z,68.07
2023-02-03T13:00:44.911Z,67.73
2023-02-03T13:01:40.560Z,67.93
2023-02-03T13:02:20.272Z,67.97
2023-02-03T13:03:06.572Z,67.99
2023-02-03T13:03:42.460Z,67.91
2023-02-03T13:04:26.662Z,67.91
2023-02-03T13:05:59.963Z,67.83
2023-02-03T13:06:43.666Z,67.89
2023-02-03T13:07:19.469Z,67.90
2023-02-03T13:07:57.428Z,67.90
2023-02-03T13:08:37.993Z,67.91
2023-02-03T13:09:29.101Z,67.84
2023-02-03T13:10:20.850Z,67.76
2023-02-03T13:11:02.885Z,67.82
2023-02-03T13:12:41.777Z,67.80
2023-02-03T13:13:16.299Z,67.71
2023-02-03T13:13:52.547Z,67.74
2023-02-03T13:15:44.600Z,67.81
2023-02-03T13:16:18.276Z,67.73
2023-02-03T13:16:56.506Z,67.78
2023-02-03T13:17:49.065Z,67.61
2023-02-03T13:20:10.483Z,67.79
2023-02-03T13:21:55.469Z,68.93
2023-02-03T13:23:08.363Z,69.69
2023-02-03T13:23:51.752Z,69.99
2023-02-03T13:24:25.453Z,70.09